Time;durP1;ratioP1;P1;durP2;ratioP2;P2;SDS_P1;SDS_P2;PMS_P1;PMS_P2;Temp;Humidity;BMP_temperature;BMP_pressure;BME280_temperature;BME280_humidity;BME280_pressure;Samples;Min_cycle;Max_cycle;Signal;HPM_P1;HPM_P2
2023/05/13 00:00:21;;;;;;;;;;;;;;;12.73;94.51;99592.44;4156122;34;34503;-95
2023/05/13 00:02:49;;;;;;;;;;;;;;;12.53;93.06;99593.62;4179483;34;33580;-95
2023/05/13 00:05:17;;;;;;;;;;;;;;;12.54;93.81;99591.84;4179413;34;34910;-95
2023/05/13 00:07:45;;;;;;;;;;;;;;;12.70;93.20;99581.13;4166717;34;34777;-94
2023/05/13 00:10:15;;;;;;;;;;;;;;;12.03;96.76;99589.94;4179361;34;35451;-93
2023/05/13 00:12:43;;;;;;;;;;;;;;;12.33;96.43;99592.16;4155979;34;34303;-93
2023/05/13 00:15:11;;;;;;;;;;;;;;;12.20;96.00;99590.56;4178230;34;33988;-95
2023/05/13 00:17:39;;;;;;;;;;;;;;;12.52;93.77;99597.09;4179309;34;36062;-95
2023/05/13 00:20:07;;;;;;;;;;;;;;;12.26;95.09;99590.47;4179258;34;34662;-94
2023/05/13 00:22:35;;;;;;;;;;;;;;;12.16;95.89;99588.91;4166963;34;33435;-95
2023/05/13 00:25:03;;;;;;;;;;;;;;;12.16;94.06;99594.12;4166917;34;34946;-93
2023/05/13 00:27:31;;;;;;;;;;;;;;;12.39;93.56;99592.91;4166582;34;35156;-95
2023/05/13 00:29:59;;;;;;;;;;;;;;;12.48;92.55;99595.44;4155787;34;34596;-94
2023/05/13 00:32:27;;;;;;;;;;;;;;;12.20;94.46;99598.41;4179436;34;34067;-95
2023/05/13 00:34:55;;;;;;;;;;;;;;;12.23;94.62;99594.88;4155460;34;33389;-93
2023/05/13 00:37:26;;;;;;;;;;;;;;;12.29;94.05;99595.66;4179033;34;34993;-94
2023/05/13 00:39:54;;;;;;;;;;;;;;;12.46;93.31;99597.19;4179053;34;35223;-93
2023/05/13 00:42:22;;;;;;;;;;;;;;;12.03;95.84;99602.97;4179043;34;33703;-93
2023/05/13 00:44:50;;;;;;;;;;;;;;;12.10;95.10;99600.25;4155556;34;33275;-94
2023/05/13 00:47:18;;;;;;;;;;;;;;;11.85;95.98;99597.06;4158607;34;35164;-92
2023/05/13 00:49:46;;;;;;;;;;;;;;;12.41;93.63;99599.00;4165517;34;34677;-95
2023/05/13 00:52:14;;;;;;;;;;;;;;;11.97;95.19;99595.25;4165358;34;33364;-93
2023/05/13 00:54:42;;;;;;;;;;;;;;;12.23;94.01;99603.59;4165465;34;35014;-93
2023/05/13 00:57:10;;;;;;;;;;;;;;;11.99;95.46;99594.31;4165313;34;35148;-94
2023/05/13 00:59:39;;;;;;;;;;;;;;;11.87;96.80;99600.50;4164158;34;34721;-95
2023/05/13 01:02:09;;;;;;;;;;;;;;;12.24;94.52;99594.00;4165430;34;33539;-94
2023/05/13 01:04:53;;;;;;;;;;;;;;;11.98;94.44;99599.56;4164242;34;34876;-95
2023/05/13 01:07:24;;;;;;;;;;;;;;;12.09;94.32;99609.00;4165121;34;35342;-94
2023/05/13 01:10:10;;;;;;;;;;;;;;;12.05;94.17;99601.22;4165273;34;35356;-94
2023/05/13 01:12:40;;;;;;;;;;;;;;;12.08;93.17;99603.78;4165306;34;33678;-94
2023/05/13 01:15:15;;;;;;;;;;;;;;;11.98;94.68;99604.78;4164058;34;33919;-94
2023/05/13 01:17:46;;;;;;;;;;;;;;;12.10;95.59;99609.84;4164118;34;35873;-94
2023/05/13 01:20:14;;;;;;;;;;;;;;;12.51;92.24;99613.66;4164153;34;35521;-92
2023/05/13 01:22:43;;;;;;;;;;;;;;;11.91;94.96;99615.31;4164108;34;33918;-92
2023/05/13 01:25:10;;;;;;;;;;;;;;;11.86;95.58;99617.06;4165247;34;34139;-94
2023/05/13 01:27:39;;;;;;;;;;;;;;;11.79;95.90;99615.41;4165118;34;34874;-94
2023/05/13 01:30:07;;;;;;;;;;;;;;;11.89;95.93;99616.16;4164214;34;34794;-93
2023/05/13 01:32:35;;;;;;;;;;;;;;;11.64;97.68;99620.78;4164123;34;33646;-94
2023/05/13 01:35:03;;;;;;;;;;;;;;;11.87;95.72;99621.38;4163989;34;34206;-94
2023/05/13 01:37:32;;;;;;;;;;;;;;;11.68;97.14;99617.25;4164264;34;35272;-94
2023/05/13 01:40:00;;;;;;;;;;;;;;;11.90;95.67;99618.78;4165409;34;35625;-93
2023/05/13 01:42:34;;;;;;;;;;;;;;;11.95;95.45;99614.38;4163943;34;32483;-93
2023/05/13 01:45:02;;;;;;;;;;;;;;;12.26;92.20;99611.38;4164062;34;33944;-93
2023/05/13 01:47:30;;;;;;;;;;;;;;;12.10;94.21;99613.31;4164047;34;35980;-94
2023/05/13 01:49:59;;;;;;;;;;;;;;;11.58;96.69;99622.59;4152793;34;34081;-93
2023/05/13 01:52:27;;;;;;;;;;;;;;;11.71;95.61;99612.03;4153032;34;33156;-93
2023/05/13 01:54:55;;;;;;;;;;;;;;;11.72;95.86;99614.63;4165077;34;33733;-94
2023/05/13 01:57:23;;;;;;;;;;;;;;;11.64;96.69;99615.56;4165080;34;35178;-94
2023/05/13 01:59:51;;;;;;;;;;;;;;;11.39;98.93;99618.44;4165201;34;35437;-94
2023/05/13 02:02:19;;;;;;;;;;;;;;;11.56;97.83;99620.87;4165068;34;33657;-94
2023/05/13 02:04:47;;;;;;;;;;;;;;;11.69;97.09;99619.84;4164969;34;33839;-94
2023/05/13 02:07:15;;;;;;;;;;;;;;;11.66;97.63;99624.25;4165022;34;35333;-95
2023/05/13 02:09:43;;;;;;;;;;;;;;;11.57;99.21;99615.62;4164011;34;35552;-93
2023/05/13 02:12:11;;;;;;;;;;;;;;;11.33;100.00;99621.97;4163875;34;33562;-95
2023/05/13 02:14:39;;;;;;;;;;;;;;;11.43;100.00;99617.50;4165172;34;33912;-94
2023/05/13 02:17:07;;;;;;;;;;;;;;;11.37;100.00;99617.59;4152583;34;34966;-94
2023/05/13 02:19:35;;;;;;;;;;;;;;;11.62;99.96;99617.34;4163885;34;34754;-93
2023/05/13 02:22:03;;;;;;;;;;;;;;;11.94;97.96;99617.84;4163687;34;33376;-93
2023/05/13 02:24:31;;;;;;;;;;;;;;;11.84;97.13;99618.84;4164943;34;34212;-93
2023/05/13 02:26:59;;;;;;;;;;;;;;;11.85;97.32;99620.56;4164647;34;35790;-94
2023/05/13 02:29:27;;;;;;;;;;;;;;;11.82;97.67;99624.94;4163965;34;34756;-94
2023/05/13 02:31:55;;;;;;;;;;;;;;;11.87;96.85;99618.78;4164958;34;33650;-93
2023/05/13 02:34:23;;;;;;;;;;;;;;;11.68;98.15;99627.69;4152296;34;32748;-94
2023/05/13 02:36:52;;;;;;;;;;;;;;;11.44;98.93;99624.47;4163841;34;35345;-94
2023/05/13 02:39:20;;;;;;;;;;;;;;;11.87;96.96;99624.00;4164673;34;34458;-95
2023/05/13 02:41:48;;;;;;;;;;;;;;;11.94;97.05;99625.69;4163575;34;32755;-94
2023/05/13 02:44:16;;;;;;;;;;;;;;;11.56;98.75;99624.34;4163813;34;34703;-93
2023/05/13 02:46:44;;;;;;;;;;;;;;;11.60;100.00;99634.75;4163794;34;35772;-94
2023/05/13 02:49:12;;;;;;;;;;;;;;;11.87;96.18;99624.00;4152175;34;34536;-93
2023/05/13 02:51:41;;;;;;;;;;;;;;;11.81;96.26;99624.09;4164585;34;33650;-94
2023/05/13 02:54:09;;;;;;;;;;;;;;;11.49;99.05;99627.03;4164694;34;34075;-94
2023/05/13 02:56:37;;;;;;;;;;;;;;;11.57;99.38;99627.81;4163472;34;35133;-94
2023/05/13 02:59:06;;;;;;;;;;;;;;;11.40;100.00;99633.22;4152698;34;35330;-94
2023/05/13 03:01:33;;;;;;;;;;;;;;;11.99;95.60;99637.84;4163400;34;33594;-92
2023/05/13 03:04:01;;;;;;;;;;;;;;;11.60;97.29;99634.75;4163519;34;34050;-94
2023/05/13 03:06:30;;;;;;;;;;;;;;;11.47;98.44;99634.00;4163383;34;34998;-94
2023/05/13 03:08:58;;;;;;;;;;;;;;;11.60;97.64;99630.41;4164512;34;35199;-94
2023/05/13 03:11:26;;;;;;;;;;;;;;;11.62;97.33;99636.44;4163407;34;34367;-94
2023/05/13 03:13:54;;;;;;;;;;;;;;;11.75;97.04;99637.19;4163415;34;34108;-93
2023/05/13 03:16:22;;;;;;;;;;;;;;;11.67;98.09;99636.41;4163392;34;35778;-93
2023/05/13 03:18:50;;;;;;;;;;;;;;;11.51;97.83;99626.13;4152050;34;35442;-93
2023/05/13 03:21:18;;;;;;;;;;;;;;;11.50;98.11;99639.19;4163646;34;34265;-94
2023/05/13 03:23:46;;;;;;;;;;;;;;;11.94;95.46;99637.88;4152414;34;33911;-94
2023/05/13 03:26:15;;;;;;;;;;;;;;;11.50;97.13;99641.78;4163255;34;36061;-94
2023/05/13 03:28:44;;;;;;;;;;;;;;;11.54;97.15;99641.75;4163017;34;34340;-94
2023/05/13 03:31:12;;;;;;;;;;;;;;;11.79;94.99;99641.50;4164095;34;34033;-94
2023/05/13 03:33:40;;;;;;;;;;;;;;;11.71;96.37;99641.56;4163218;34;34059;-94
2023/05/13 03:36:08;;;;;;;;;;;;;;;11.61;95.53;99649.50;4152322;34;35827;-94
2023/05/13 03:38:36;;;;;;;;;;;;;;;11.57;96.04;99653.88;4164108;34;34640;-94
2023/05/13 03:41:04;;;;;;;;;;;;;;;11.59;95.38;99662.56;4163153;34;33590;-93
2023/05/13 03:43:33;;;;;;;;;;;;;;;11.35;97.30;99654.09;4140649;34;32676;-94
2023/05/13 03:46:01;;;;;;;;;;;;;;;11.32;98.83;99661.09;4164404;34;35355;-94
2023/05/13 03:48:29;;;;;;;;;;;;;;;11.24;98.18;99657.66;4162931;34;35496;-94
2023/05/13 03:50:58;;;;;;;;;;;;;;;11.57;95.92;99651.28;4164302;34;34350;-94
2023/05/13 03:53:26;;;;;;;;;;;;;;;11.09;98.28;99654.31;4163970;34;33926;-94
2023/05/13 03:55:54;;;;;;;;;;;;;;;11.18;99.28;99659.44;4163073;34;35158;-94
2023/05/13 03:58:22;;;;;;;;;;;;;;;10.90;100.00;99660.53;4163905;34;34765;-94
2023/05/13 04:00:50;;;;;;;;;;;;;;;11.29;99.53;99668.91;4151873;34;34286;-93
2023/05/13 04:03:18;;;;;;;;;;;;;;;11.74;96.66;99664.16;4151496;34;34334;-94
2023/05/13 04:05:47;;;;;;;;;;;;;;;11.20;98.17;99673.31;4151652;34;35281;-94
2023/05/13 04:08:15;;;;;;;;;;;;;;;11.53;96.74;99668.72;4162649;34;35412;-93
2023/05/13 04:10:43;;;;;;;;;;;;;;;11.51;96.92;99673.06;4162845;34;32824;-95
2023/05/13 04:13:11;;;;;;;;;;;;;;;11.42;96.79;99670.56;4162662;34;33872;-94
2023/05/13 04:15:39;;;;;;;;;;;;;;;11.82;94.31;99672.75;4151669;34;35125;-94
2023/05/13 04:18:07;;;;;;;;;;;;;;;11.48;95.73;99672.25;4163646;34;35125;-93
2023/05/13 04:20:38;;;;;;;;;;;;;;;11.64;94.75;99678.19;4163696;34;33282;-94
2023/05/13 04:23:07;;;;;;;;;;;;;;;11.32;97.35;99684.53;4162637;34;34098;-94
2023/05/13 04:25:36;;;;;;;;;;;;;;;11.52;95.92;99681.75;4151318;34;34103;-93
2023/05/13 04:28:04;;;;;;;;;;;;;;;11.65;94.58;99685.12;4162328;34;34441;-93
2023/05/13 04:30:33;;;;;;;;;;;;;;;11.03;98.57;99680.44;4162494;34;32943;-94
2023/05/13 04:33:01;;;;;;;;;;;;;;;10.95;100.00;99690.03;4162456;34;34650;-95
2023/05/13 04:35:29;;;;;;;;;;;;;;;11.34;97.49;99685.41;4151628;34;35687;-94
2023/05/13 04:37:58;;;;;;;;;;;;;;;11.68;95.78;99685.09;4162463;34;34408;-94
2023/05/13 04:40:26;;;;;;;;;;;;;;;11.45;96.95;99688.75;4163320;34;34383;-95
2023/05/13 04:42:55;;;;;;;;;;;;;;;11.37;98.78;99694.06;4152586;34;34240;-94
2023/05/13 04:45:24;;;;;;;;;;;;;;;11.41;99.17;99692.28;4164297;34;35985;-93
2023/05/13 04:47:52;;;;;;;;;;;;;;;11.65;98.05;99690.34;4164363;34;34464;-96
2023/05/13 04:50:22;;;;;;;;;;;;;;;11.56;97.78;99694.75;4153487;34;33478;-93
2023/05/13 04:52:53;;;;;;;;;;;;;;;11.35;97.70;99692.34;4152907;34;32400;-93
2023/05/13 04:55:22;;;;;;;;;;;;;;;11.72;96.18;99699.84;4164288;34;34870;-95
2023/05/13 04:57:50;;;;;;;;;;;;;;;11.49;97.33;99700.91;4165622;34;34636;-94
2023/05/13 05:00:18;;;;;;;;;;;;;;;12.14;93.72;99705.50;4165370;34;33320;-93
2023/05/13 05:02:46;;;;;;;;;;;;;;;11.76;94.77;99709.38;4164436;34;33882;-93
2023/05/13 05:05:15;;;;;;;;;;;;;;;11.56;97.04;99707.81;4165488;34;35967;-93
2023/05/13 05:07:45;;;;;;;;;;;;;;;11.90;94.44;99715.34;4164503;34;35108;-93
2023/05/13 05:10:14;;;;;;;;;;;;;;;11.60;96.92;99702.56;4164302;34;33361;-93
2023/05/13 05:12:42;;;;;;;;;;;;;;;11.86;94.03;99715.34;4165492;34;33998;-93
2023/05/13 05:15:14;;;;;;;;;;;;;;;11.47;97.22;99707.91;4165342;34;35017;-93
2023/05/13 05:17:43;;;;;;;;;;;;;;;12.13;94.07;99707.25;4165321;34;34942;-93
2023/05/13 05:20:12;;;;;;;;;;;;;;;11.97;93.31;99718.75;4162693;34;33778;-92
2023/05/13 05:22:40;;;;;;;;;;;;;;;11.74;95.57;99711.13;4163993;34;34182;-92
2023/05/13 05:25:09;;;;;;;;;;;;;;;12.06;94.76;99718.66;4128622;34;34878;-92
2023/05/13 05:27:37;;;;;;;;;;;;;;;11.92;94.48;99718.78;4159550;34;34998;-93
2023/05/13 05:30:07;;;;;;;;;;;;;;;12.37;92.62;99717.44;4149918;34;33674;-93
2023/05/13 05:32:36;;;;;;;;;;;;;;;12.02;94.81;99721.28;4154825;34;34736;-92
2023/05/13 05:35:04;;;;;;;;;;;;;;;11.92;95.61;99725.75;4165166;34;34911;-94
2023/05/13 05:37:32;;;;;;;;;;;;;;;12.28;92.36;99727.13;4145105;34;33787;-93
2023/05/13 05:40:00;;;;;;;;;;;;;;;12.24;92.13;99725.41;4160925;34;33230;-94
2023/05/13 05:42:39;;;;;;;;;;;;;;;12.16;91.75;99727.25;4169967;34;33800;-93
2023/05/13 05:45:08;;;;;;;;;;;;;;;12.19;91.22;99728.97;4159946;34;34923;-92
2023/05/13 05:47:37;;;;;;;;;;;;;;;12.21;90.74;99722.84;4152210;34;36241;-93
2023/05/13 05:50:05;;;;;;;;;;;;;;;12.19;93.78;99714.16;4152666;34;33910;-93
2023/05/13 05:52:33;;;;;;;;;;;;;;;12.20;93.60;99715.88;4164835;34;34873;-93
2023/05/13 05:55:02;;;;;;;;;;;;;;;12.21;93.02;99712.41;4134969;34;35356;-91
2023/05/13 05:57:30;;;;;;;;;;;;;;;12.39;92.63;99715.66;4157025;34;33471;-93
2023/05/13 05:59:58;;;;;;;;;;;;;;;12.63;91.14;99731.03;4152148;34;32093;-93
2023/05/13 06:02:26;;;;;;;;;;;;;;;12.13;91.69;99730.75;4152604;34;34096;-92
2023/05/13 06:04:54;;;;;;;;;;;;;;;12.00;93.34;99725.66;4152635;34;35220;-92
2023/05/13 06:07:22;;;;;;;;;;;;;;;12.26;91.38;99728.84;4164924;34;34318;-93
2023/05/13 06:09:50;;;;;;;;;;;;;;;12.50;90.72;99734.69;4163378;34;33436;-93
2023/05/13 06:12:19;;;;;;;;;;;;;;;12.62;89.02;99741.53;4155604;34;34132;-93
2023/05/13 06:14:47;;;;;;;;;;;;;;;12.41;91.18;99734.81;4157988;34;36046;-92
2023/05/13 06:17:15;;;;;;;;;;;;;;;12.60;89.51;99733.72;4140829;34;33771;-93
2023/05/13 06:19:43;;;;;;;;;;;;;;;12.45;92.62;99736.50;4145113;34;33285;-91
2023/05/13 06:22:11;;;;;;;;;;;;;;;12.56;90.88;99737.22;4138781;34;33154;-91
2023/05/13 06:24:41;;;;;;;;;;;;;;;12.55;91.00;99738.12;4156358;34;35648;-92
2023/05/13 06:27:10;;;;;;;;;;;;;;;13.07;89.66;99741.78;4178558;34;34064;-93
2023/05/13 06:29:38;;;;;;;;;;;;;;;12.73;89.56;99746.62;4176739;34;34342;-93
2023/05/13 06:32:07;;;;;;;;;;;;;;;12.92;88.56;99740.25;4169258;34;33773;-92
2023/05/13 06:34:35;;;;;;;;;;;;;;;13.49;86.83;99749.03;4151678;34;34891;-93
2023/05/13 06:37:03;;;;;;;;;;;;;;;13.37;87.15;99745.69;4152373;34;35436;-93
2023/05/13 06:39:31;;;;;;;;;;;;;;;13.48;83.19;99742.06;4141081;34;35410;-93
2023/05/13 06:41:59;;;;;;;;;;;;;;;13.17;85.46;99742.50;4140917;34;34028;-92
2023/05/13 06:44:30;;;;;;;;;;;;;;;13.35;86.22;99747.47;4164676;34;34502;-92
2023/05/13 06:46:57;;;;;;;;;;;;;;;13.32;87.21;99742.28;4164530;34;35502;-94
2023/05/13 06:49:26;;;;;;;;;;;;;;;13.26;87.32;99739.75;4164305;34;33505;-92
2023/05/13 06:51:54;;;;;;;;;;;;;;;13.61;83.65;99740.97;4160040;34;34149;-92
2023/05/13 06:54:22;;;;;;;;;;;;;;;13.60;86.03;99736.63;4152083;34;35152;-93
2023/05/13 06:56:51;;;;;;;;;;;;;;;13.31;89.05;99735.34;4162997;34;34664;-93
2023/05/13 06:59:20;;;;;;;;;;;;;;;13.16;86.81;99735.53;4163172;34;33052;-93
2023/05/13 07:01:48;;;;;;;;;;;;;;;13.17;90.63;99732.06;4164101;34;34096;-93
2023/05/13 07:04:16;;;;;;;;;;;;;;;13.75;85.31;99731.12;4162422;34;35806;-93
2023/05/13 07:06:44;;;;;;;;;;;;;;;13.59;87.01;99737.53;4163073;34;35063;-92
2023/05/13 07:09:12;;;;;;;;;;;;;;;14.04;82.17;99738.44;4157836;34;32400;-92
2023/05/13 07:11:40;;;;;;;;;;;;;;;14.23;81.47;99738.97;4176676;34;34207;-92
2023/05/13 07:14:08;;;;;;;;;;;;;;;13.54;85.33;99731.50;4176352;34;36046;-91
2023/05/13 07:16:36;;;;;;;;;;;;;;;14.36;81.78;99730.88;4177835;34;34695;-92
2023/05/13 07:19:04;;;;;;;;;;;;;;;13.95;83.02;99724.69;4176358;34;33244;-93
2023/05/13 07:21:32;;;;;;;;;;;;;;;14.34;80.24;99737.91;4175024;34;34870;-92
2023/05/13 07:24:04;;;;;;;;;;;;;;;14.25;82.21;99741.56;4147049;34;36006;-92
2023/05/13 07:26:35;;;;;;;;;;;;;;;14.48;80.29;99748.97;4148855;34;33593;-92
2023/05/13 07:29:03;;;;;;;;;;;;;;;14.48;79.04;99743.72;4159450;34;34018;-91
2023/05/13 07:31:31;;;;;;;;;;;;;;;14.43;80.79;99750.81;4163025;34;33788;-91
2023/05/13 07:33:59;;;;;;;;;;;;;;;14.65;80.92;99750.41;4145585;34;35793;-92
2023/05/13 07:36:27;;;;;;;;;;;;;;;14.87;76.49;99750.81;4145297;34;34619;-91
2023/05/13 07:38:55;;;;;;;;;;;;;;;14.70;76.67;99753.78;4158738;34;33627;-92
2023/05/13 07:41:23;;;;;;;;;;;;;;;14.96;77.92;99758.47;4158207;34;33986;-91
2023/05/13 07:43:51;;;;;;;;;;;;;;;14.40;80.39;99749.13;4145902;34;36589;-92
2023/05/13 07:46:19;;;;;;;;;;;;;;;14.91;77.18;99758.59;4150944;34;35180;-91
2023/05/13 07:48:47;;;;;;;;;;;;;;;14.89;77.55;99759.50;4158194;34;32766;-92
2023/05/13 07:51:17;;;;;;;;;;;;;;;14.50;79.15;99759.41;4157896;34;34114;-94
2023/05/13 07:53:45;;;;;;;;;;;;;;;14.53;76.52;99762.84;4133629;34;35167;-93
2023/05/13 07:56:14;;;;;;;;;;;;;;;14.86;75.93;99762.19;4157935;34;34669;-93
2023/05/13 07:58:42;;;;;;;;;;;;;;;14.34;77.39;99766.72;4158054;34;33262;-91
2023/05/13 08:01:09;;;;;;;;;;;;;;;14.12;77.56;99761.88;4143284;34;33829;-92
2023/05/13 08:03:38;;;;;;;;;;;;;;;14.50;76.20;99768.12;4146700;34;32800;-92
2023/05/13 08:06:06;;;;;;;;;;;;;;;14.65;74.26;99768.75;4157672;34;35473;-92
2023/05/13 08:08:34;;;;;;;;;;;;;;;14.06;76.79;99767.22;4145302;34;34349;-91
2023/05/13 08:11:02;;;;;;;;;;;;;;;13.69;79.58;99777.47;4122425;34;33622;-93
2023/05/13 08:13:33;;;;;;;;;;;;;;;13.86;79.40;99774.59;4146476;34;35015;-92
2023/05/13 08:16:02;;;;;;;;;;;;;;;13.84;77.82;99787.69;4144904;34;34470;-92
2023/05/13 08:18:30;;;;;;;;;;;;;;;13.75;79.02;99786.09;4138818;34;33700;-91
2023/05/13 08:20:58;;;;;;;;;;;;;;;14.41;75.83;99790.13;4146527;34;33633;-93
2023/05/13 08:23:26;;;;;;;;;;;;;;;14.06;77.98;99792.56;4147066;34;35308;-92
2023/05/13 08:26:12;;;;;;;;;;;;;;;14.28;76.93;99787.81;4161073;34;34303;-92
2023/05/13 08:28:40;;;;;;;;;;;;;;;13.77;78.92;99801.78;4147311;34;33330;-92
2023/05/13 08:31:12;;;;;;;;;;;;;;;13.99;77.85;99797.03;4158917;34;34116;-92
2023/05/13 08:33:41;;;;;;;;;;;;;;;14.02;78.79;99802.22;4158463;34;35440;-92
2023/05/13 08:36:10;;;;;;;;;;;;;;;14.21;79.26;99793.16;4162820;34;34769;-91
2023/05/13 08:38:42;;;;;;;;;;;;;;;14.11;81.83;99799.44;4162980;34;33435;-93
2023/05/13 08:41:11;;;;;;;;;;;;;;;14.29;80.47;99800.84;4146953;34;34631;-91
2023/05/13 08:43:39;;;;;;;;;;;;;;;14.64;76.82;99801.97;4162529;34;35325;-92
2023/05/13 08:46:10;;;;;;;;;;;;;;;14.20;79.34;99795.78;4146213;34;35473;-93
2023/05/13 08:48:39;;;;;;;;;;;;;;;13.75;82.04;99800.94;4158005;34;34284;-91
2023/05/13 08:51:08;;;;;;;;;;;;;;;14.33;79.79;99804.28;4152147;34;33919;-92
2023/05/13 08:53:36;;;;;;;;;;;;;;;14.28;79.56;99804.38;4162700;34;34875;-91
2023/05/13 08:56:08;;;;;;;;;;;;;;;14.67;78.96;99806.31;4160022;34;35147;-92
2023/05/13 08:58:36;;;;;;;;;;;;;;;15.09;76.77;99801.91;4159894;34;33359;-92
2023/05/13 09:01:04;;;;;;;;;;;;;;;15.29;76.29;99800.59;4160010;34;32880;-92
2023/05/13 09:03:40;;;;;;;;;;;;;;;15.50;75.05;99791.38;4146091;34;35225;-92
2023/05/13 09:06:08;;;;;;;;;;;;;;;15.46;75.76;99808.06;4159348;34;35089;-93
2023/05/13 09:08:36;;;;;;;;;;;;;;;15.59;73.61;99803.41;4159254;34;33506;-94
2023/05/13 09:11:04;;;;;;;;;;;;;;;15.77;71.38;99797.75;4146450;34;34114;-92
2023/05/13 09:13:32;;;;;;;;;;;;;;;15.09;71.73;99801.06;4136395;34;33697;-92
2023/05/13 09:16:00;;;;;;;;;;;;;;;15.80;70.26;99796.81;4163706;34;34596;-92
2023/05/13 09:18:29;;;;;;;;;;;;;;;15.20;75.19;99804.28;4145530;34;33300;-91
2023/05/13 09:20:58;;;;;;;;;;;;;;;15.33;75.53;99789.97;4162995;34;34605;-93
2023/05/13 09:23:26;;;;;;;;;;;;;;;15.19;72.54;99805.19;4162536;34;35561;-94
2023/05/13 09:25:54;;;;;;;;;;;;;;;15.49;73.19;99802.75;4163448;34;35316;-92
2023/05/13 09:28:22;;;;;;;;;;;;;;;15.38;71.39;99794.28;4151453;34;31960;-92
2023/05/13 09:30:53;;;;;;;;;;;;;;;15.15;71.12;99803.53;4159223;34;33896;-92
2023/05/13 09:33:22;;;;;;;;;;;;;;;15.22;74.65;99799.03;4146895;34;35069;-92
2023/05/13 09:35:51;;;;;;;;;;;;;;;15.14;71.91;99804.41;4147754;34;34606;-92
2023/05/13 09:38:27;;;;;;;;;;;;;;;15.05;73.93;99802.00;4146651;34;33201;-93
2023/05/13 09:40:59;;;;;;;;;;;;;;;15.50;71.52;99804.50;4146663;34;34118;-92
2023/05/13 09:43:41;;;;;;;;;;;;;;;15.68;69.03;99798.78;4152480;34;36798;-93
2023/05/13 09:46:10;;;;;;;;;;;;;;;15.91;69.88;99806.12;4147774;34;34261;-94
2023/05/13 09:48:38;;;;;;;;;;;;;;;15.96;68.75;99803.41;4159866;34;33128;-93
2023/05/13 09:51:06;;;;;;;;;;;;;;;15.91;68.38;99800.88;4161726;34;33964;-93
2023/05/13 09:53:34;;;;;;;;;;;;;;;16.06;69.75;99794.38;4161751;34;35018;-95
2023/05/13 09:56:07;;;;;;;;;;;;;;;16.16;68.86;99797.63;4159389;34;32050;-93
2023/05/13 09:58:35;;;;;;;;;;;;;;;16.30;65.06;99797.25;4164899;34;32933;-91
2023/05/13 10:01:03;;;;;;;;;;;;;;;15.88;66.49;99798.34;4159992;34;33827;-94
2023/05/13 10:03:31;;;;;;;;;;;;;;;16.26;69.95;99804.34;4145210;34;35480;-92
2023/05/13 10:05:59;;;;;;;;;;;;;;;16.21;65.60;99806.25;4145984;34;34633;-91
2023/05/13 10:08:29;;;;;;;;;;;;;;;16.11;66.74;99803.00;4161600;34;32694;-91
2023/05/13 10:10:58;;;;;;;;;;;;;;;15.76;65.36;99805.66;4147967;34;31273;-91
2023/05/13 10:13:26;;;;;;;;;;;;;;;15.77;68.12;99802.13;4146088;34;34533;-92
2023/05/13 10:15:54;;;;;;;;;;;;;;;16.06;69.26;99802.28;4147028;34;34669;-92
2023/05/13 10:18:23;;;;;;;;;;;;;;;16.36;64.92;99798.84;4145543;34;33175;-93
2023/05/13 10:20:53;;;;;;;;;;;;;;;16.19;67.58;99794.91;4157673;34;32469;-93
2023/05/13 10:23:22;;;;;;;;;;;;;;;15.95;69.50;99793.78;4163170;34;35276;-93
2023/05/13 10:25:55;;;;;;;;;;;;;;;15.89;69.44;99796.56;4151760;34;35085;-92
2023/05/13 10:28:24;;;;;;;;;;;;;;;16.28;66.37;99788.56;4163328;34;33748;-93
2023/05/13 10:30:52;;;;;;;;;;;;;;;16.00;68.34;99789.28;4163884;34;33783;-93
2023/05/13 10:33:20;;;;;;;;;;;;;;;15.81;67.75;99798.53;4163763;34;34578;-92
2023/05/13 10:36:00;;;;;;;;;;;;;;;16.03;65.50;99794.47;4162801;34;34772;-92
2023/05/13 10:38:49;;;;;;;;;;;;;;;15.56;68.05;99796.47;4164483;34;34272;-93
2023/05/13 10:41:26;;;;;;;;;;;;;;;15.42;70.15;99796.78;4154612;34;33733;-92
2023/05/13 10:43:55;;;;;;;;;;;;;;;15.36;71.00;99796.94;4164483;34;35030;-93
2023/05/13 10:46:23;;;;;;;;;;;;;;;15.55;68.70;99807.88;4162631;34;34813;-93
2023/05/13 10:48:58;;;;;;;;;;;;;;;15.74;68.01;99808.28;4163375;34;33663;-92
2023/05/13 10:51:26;;;;;;;;;;;;;;;14.97;71.32;99802.19;4163134;34;34936;-92
2023/05/13 10:53:55;;;;;;;;;;;;;;;15.45;69.60;99806.38;4163187;34;35231;-93
2023/05/13 10:56:27;;;;;;;;;;;;;;;15.61;69.80;99804.25;4151797;34;35362;-93
2023/05/13 10:58:57;;;;;;;;;;;;;;;15.57;70.16;99803.44;4163160;34;34066;-92
2023/05/13 11:01:41;;;;;;;;;;;;;;;15.73;68.26;99807.41;4164429;34;34205;-92
2023/05/13 11:04:12;;;;;;;;;;;;;;;15.69;68.21;99805.78;4164465;34;35200;-92
2023/05/13 11:06:40;;;;;;;;;;;;;;;15.58;69.52;99801.69;4162891;34;34547;-94
2023/05/13 11:09:08;;;;;;;;;;;;;;;15.40;68.65;99797.72;4139295;34;32642;-94
2023/05/13 11:11:39;;;;;;;;;;;;;;;15.65;68.13;99803.25;4163626;34;33174;-93
2023/05/13 11:14:14;;;;;;;;;;;;;;;15.72;67.60;99795.22;4163629;34;34775;-93
2023/05/13 11:17:03;;;;;;;;;;;;;;;15.63;68.26;99802.44;4152090;34;35614;-94
2023/05/13 11:19:32;;;;;;;;;;;;;;;15.62;66.85;99798.97;4160929;34;33528;-93
2023/05/13 11:22:03;;;;;;;;;;;;;;;15.49;66.60;99802.75;4128487;34;34837;-93
2023/05/13 11:24:31;;;;;;;;;;;;;;;15.41;67.36;99800.31;4162922;34;35158;-92
2023/05/13 11:27:11;;;;;;;;;;;;;;;15.37;67.50;99798.69;4163978;34;34769;-93
2023/05/13 11:29:39;;;;;;;;;;;;;;;15.73;66.10;99796.91;4151739;34;33430;-93
2023/05/13 11:32:07;;;;;;;;;;;;;;;15.22;68.60;99793.78;4154873;34;34537;-93
2023/05/13 11:34:35;;;;;;;;;;;;;;;15.28;68.99;99797.13;4163348;34;36059;-93
2023/05/13 11:37:03;;;;;;;;;;;;;;;15.48;67.65;99801.06;4150690;34;34158;-93
2023/05/13 11:39:31;;;;;;;;;;;;;;;15.13;69.84;99800.09;4151637;34;33414;-94
2023/05/13 11:42:02;;;;;;;;;;;;;;;15.17;69.76;99801.72;4164007;34;34933;-94
2023/05/13 11:44:30;;;;;;;;;;;;;;;15.24;68.73;99800.69;4151793;34;34945;-93
2023/05/13 11:46:59;;;;;;;;;;;;;;;15.44;68.32;99804.63;4151608;34;34782;-94
2023/05/13 11:49:31;;;;;;;;;;;;;;;15.02;68.38;99815.16;4141336;34;34321;-94
2023/05/13 11:52:00;;;;;;;;;;;;;;;14.97;69.08;99808.28;4164178;34;34157;-93
2023/05/13 11:54:28;;;;;;;;;;;;;;;15.25;69.48;99805.06;4174911;34;35201;-92
2023/05/13 11:56:56;;;;;;;;;;;;;;;15.30;69.36;99813.69;4165302;34;35196;-94
2023/05/13 11:59:25;;;;;;;;;;;;;;;14.92;69.70;99812.75;4163863;34;34350;-93
2023/05/13 12:01:59;;;;;;;;;;;;;;;15.17;69.53;99813.06;4164395;34;34125;-92
2023/05/13 12:04:30;;;;;;;;;;;;;;;15.02;70.15;99823.94;4153486;34;35420;-94
2023/05/13 12:07:04;;;;;;;;;;;;;;;15.54;68.34;99814.88;4152704;34;33870;-93
2023/05/13 12:09:32;;;;;;;;;;;;;;;15.70;67.54;99812.75;4163723;34;34402;-95
2023/05/13 12:12:00;;;;;;;;;;;;;;;15.82;68.71;99819.50;4156926;34;34072;-94
2023/05/13 12:14:28;;;;;;;;;;;;;;;15.80;69.36;99817.81;4152441;34;35972;-94
2023/05/13 12:16:57;;;;;;;;;;;;;;;16.23;66.41;99814.09;4165191;34;34787;-94
2023/05/13 12:19:25;;;;;;;;;;;;;;;16.15;65.85;99818.66;4152827;34;33557;-93
2023/05/13 12:21:55;;;;;;;;;;;;;;;16.17;66.82;99816.91;4164260;34;33368;-94
2023/05/13 12:24:23;;;;;;;;;;;;;;;16.30;66.13;99828.78;4151697;34;35836;-94
2023/05/13 12:26:51;;;;;;;;;;;;;;;16.04;64.88;99824.22;4156685;34;34331;-93
2023/05/13 12:29:19;;;;;;;;;;;;;;;16.49;63.27;99830.03;4141629;34;31984;-94
2023/05/13 12:32:05;;;;;;;;;;;;;;;16.52;64.58;99822.94;4146205;34;33959;-94
2023/05/13 12:34:33;;;;;;;;;;;;;;;16.21;64.40;99823.78;4150116;34;297187;-94
2023/05/13 12:37:09;;;;;;;;;;;;;;;15.97;66.13;99815.66;4135056;34;35570;-92
2023/05/13 12:39:38;;;;;;;;;;;;;;;15.81;66.99;99825.66;4167860;34;33226;-93
2023/05/13 12:42:13;;;;;;;;;;;;;;;16.33;64.29;99819.97;4157074;34;34661;-92
2023/05/13 12:44:44;;;;;;;;;;;;;;;15.73;65.67;99817.06;4171159;34;32727;-94
2023/05/13 12:47:14;;;;;;;;;;;;;;;15.81;65.73;99817.78;4143955;34;35478;-94
2023/05/13 12:49:55;;;;;;;;;;;;;;;16.07;65.91;99822.38;4172851;34;33519;-94
2023/05/13 12:52:23;;;;;;;;;;;;;;;15.80;68.37;99817.81;4147038;34;34892;-94
2023/05/13 12:54:51;;;;;;;;;;;;;;;15.85;67.66;99823.81;4166690;34;35334;-93